createdAt,value
2023-05-12T00:01:11.633Z,23.65
2023-05-12T00:03:39.156Z,20.00
2023-05-12T00:06:06.782Z,19.83
2023-05-12T00:08:34.140Z,19.65
2023-05-12T00:11:01.899Z,19.13
2023-05-12T00:13:29.719Z,22.00
2023-05-12T00:15:59.165Z,21.08
2023-05-12T00:18:28.747Z,22.50
2023-05-12T00:20:56.868Z,21.67
2023-05-12T00:23:24.254Z,22.80
2023-05-12T00:25:51.720Z,25.10
2023-05-12T00:28:19.588Z,24.52
2023-05-12T00:30:46.893Z,28.95
2023-05-12T00:33:14.444Z,26.02
2023-05-12T00:35:41.821Z,25.25
2023-05-12T00:38:09.243Z,28.27
2023-05-12T00:40:36.659Z,28.00
2023-05-12T00:43:04.296Z,25.27
2023-05-12T00:45:33.361Z,24.05
2023-05-12T00:48:01.392Z,21.60
2023-05-12T00:50:28.976Z,25.88
2023-05-12T00:52:57.052Z,26.10
2023-05-12T00:55:25.811Z,32.22
2023-05-12T00:57:53.521Z,28.63
2023-05-12T01:00:21.878Z,27.27
2023-05-12T01:02:49.699Z,32.67
2023-05-12T01:05:17.192Z,28.80
2023-05-12T01:07:46.891Z,26.38
2023-05-12T01:10:21.898Z,28.80
2023-05-12T01:12:49.716Z,27.17
2023-05-12T01:15:18.395Z,35.03
2023-05-12T01:17:52.762Z,38.50
2023-05-12T01:20:24.241Z,32.75
2023-05-12T01:22:52.662Z,32.85
2023-05-12T01:25:23.636Z,30.40
2023-05-12T01:27:52.911Z,35.10
2023-05-12T01:30:22.035Z,36.20
2023-05-12T01:32:51.305Z,35.72
2023-05-12T01:35:19.924Z,38.08
2023-05-12T01:37:47.623Z,36.92
2023-05-12T01:40:15.509Z,41.33
2023-05-12T01:42:43.145Z,41.15
2023-05-12T01:45:10.807Z,39.90
2023-05-12T01:47:38.271Z,44.78
2023-05-12T01:50:05.931Z,42.80
2023-05-12T01:52:33.329Z,45.08
2023-05-12T01:55:00.633Z,42.30
2023-05-12T01:57:28.100Z,49.20
2023-05-12T01:59:55.592Z,48.47
2023-05-12T02:02:22.891Z,44.30
2023-05-12T02:04:50.262Z,45.80
2023-05-12T02:07:17.655Z,49.00
2023-05-12T02:09:44.966Z,47.15
2023-05-12T02:12:12.298Z,41.13
2023-05-12T02:14:41.383Z,46.90
2023-05-12T02:17:08.976Z,40.80
2023-05-12T02:19:36.427Z,41.15
2023-05-12T02:22:03.951Z,40.45
2023-05-12T02:24:31.267Z,39.58
2023-05-12T02:26:58.545Z,41.03
2023-05-12T02:29:26.554Z,40.63
2023-05-12T02:31:53.894Z,37.80
2023-05-12T02:34:21.263Z,38.10
2023-05-12T02:36:48.581Z,38.67
2023-05-12T02:39:16.098Z,37.10
2023-05-12T02:41:43.465Z,39.25
2023-05-12T02:44:13.232Z,39.50
2023-05-12T02:46:40.458Z,34.60
2023-05-12T02:49:07.821Z,33.58
2023-05-12T02:51:35.257Z,46.05
2023-05-12T02:54:02.587Z,33.33
2023-05-12T02:56:31.318Z,31.00
2023-05-12T02:58:59.950Z,27.35
2023-05-12T03:01:27.338Z,30.80
2023-05-12T03:03:54.748Z,28.60
2023-05-12T03:06:22.151Z,24.70
2023-05-12T03:08:49.578Z,27.33
2023-05-12T03:11:16.911Z,28.92
2023-05-12T03:13:44.278Z,30.50
2023-05-12T03:16:11.566Z,30.42
2023-05-12T03:18:38.892Z,39.25
2023-05-12T03:21:06.537Z,41.20
2023-05-12T03:23:35.526Z,43.55
2023-05-12T03:26:02.888Z,44.78
2023-05-12T03:28:30.260Z,49.85
2023-05-12T03:30:58.623Z,41.05
2023-05-12T03:33:27.463Z,40.25
2023-05-12T03:35:54.862Z,48.20
2023-05-12T03:38:23.739Z,49.72
2023-05-12T03:40:53.728Z,43.80
2023-05-12T03:43:22.795Z,42.47
2023-05-12T03:45:52.543Z,39.42
2023-05-12T03:48:19.840Z,44.08
2023-05-12T03:50:47.175Z,39.35
2023-05-12T03:53:15.471Z,48.40
2023-05-12T03:55:42.867Z,34.35
2023-05-12T03:58:10.165Z,25.98
2023-05-12T04:00:40.084Z,27.40
2023-05-12T04:03:07.686Z,31.40
2023-05-12T04:05:36.575Z,31.50
2023-05-12T04:08:04.101Z,23.45
2023-05-12T04:10:31.464Z,22.58
2023-05-12T04:12:58.931Z,22.50
2023-05-12T04:15:26.653Z,20.08
2023-05-12T04:17:57.054Z,21.58
2023-05-12T04:20:24.569Z,20.60
2023-05-12T04:22:52.046Z,15.35
2023-05-12T04:25:19.649Z,19.10
2023-05-12T04:27:47.100Z,19.45
2023-05-12T04:30:14.477Z,19.67
2023-05-12T04:32:41.999Z,22.48
2023-05-12T04:35:09.736Z,20.40
2023-05-12T04:37:37.174Z,18.10
2023-05-12T04:40:05.440Z,24.80
2023-05-12T04:42:32.710Z,29.95
2023-05-12T04:45:01.534Z,23.88
2023-05-12T04:47:29.453Z,26.15
2023-05-12T04:49:57.049Z,23.67
2023-05-12T04:52:25.035Z,24.92
2023-05-12T04:54:52.530Z,22.52
2023-05-12T04:57:19.893Z,23.48
2023-05-12T04:59:47.262Z,23.58
2023-05-12T05:02:14.843Z,21.30
2023-05-12T05:04:42.197Z,25.30
2023-05-12T05:07:10.593Z,21.15
2023-05-12T05:09:37.883Z,24.30
2023-05-12T05:12:05.573Z,22.08
2023-05-12T05:14:33.202Z,27.17
2023-05-12T05:17:00.893Z,30.33
2023-05-12T05:19:44.569Z,34.58
2023-05-12T05:22:17.339Z,31.92
2023-05-12T05:24:45.176Z,26.58
2023-05-12T05:27:12.721Z,31.05
2023-05-12T05:29:40.133Z,31.50
2023-05-12T05:32:10.152Z,30.45
2023-05-12T05:34:37.843Z,32.90
2023-05-12T05:37:05.739Z,32.10
2023-05-12T05:39:33.126Z,36.10
2023-05-12T05:42:00.429Z,34.17
2023-05-12T05:44:28.022Z,30.70
2023-05-12T05:46:55.355Z,26.65
2023-05-12T05:49:24.310Z,26.85
2023-05-12T05:51:51.589Z,26.92
2023-05-12T05:54:18.937Z,37.78
2023-05-12T05:56:46.240Z,29.25
2023-05-12T05:59:14.487Z,30.83
2023-05-12T06:01:41.846Z,30.02
2023-05-12T06:04:10.263Z,28.15
2023-05-12T06:06:37.820Z,31.88
2023-05-12T06:09:07.306Z,29.42
2023-05-12T06:11:34.630Z,26.08
2023-05-12T06:14:01.916Z,26.65
2023-05-12T06:16:29.774Z,23.02
2023-05-12T06:18:57.241Z,27.58
2023-05-12T06:21:25.261Z,24.13
2023-05-12T06:23:53.147Z,27.55
2023-05-12T06:26:22.975Z,32.03
2023-05-12T06:28:50.309Z,29.73
2023-05-12T06:31:17.643Z,26.55
2023-05-12T06:33:45.030Z,24.20
2023-05-12T06:36:12.842Z,25.55
2023-05-12T06:38:40.131Z,25.88
2023-05-12T06:41:07.467Z,22.08
2023-05-12T06:43:35.904Z,21.08
2023-05-12T06:46:03.348Z,32.78
2023-05-12T06:48:30.803Z,22.23
2023-05-12T06:50:58.118Z,18.85
2023-05-12T06:53:25.772Z,23.40
2023-05-12T06:55:53.934Z,16.60
2023-05-12T06:58:22.149Z,18.73
2023-05-12T07:00:49.463Z,17.38
2023-05-12T07:03:17.281Z,20.85
2023-05-12T07:05:45.807Z,16.90
2023-05-12T07:08:13.423Z,20.75
2023-05-12T07:10:40.738Z,14.38
2023-05-12T07:13:08.326Z,22.77
2023-05-12T07:15:36.647Z,18.88
2023-05-12T07:18:03.982Z,12.43
2023-05-12T07:20:31.473Z,12.30
2023-05-12T07:22:58.944Z,26.05
2023-05-12T07:25:26.599Z,11.88
2023-05-12T07:27:54.266Z,17.08
2023-05-12T07:30:22.596Z,15.23
2023-05-12T07:32:51.053Z,12.48
2023-05-12T07:35:19.984Z,16.58
2023-05-12T07:37:47.430Z,10.35
2023-05-12T07:40:15.304Z,15.75
2023-05-12T07:42:42.636Z,18.77
2023-05-12T07:45:10.404Z,17.50
2023-05-12T07:47:37.757Z,16.55
2023-05-12T07:50:05.913Z,14.43
2023-05-12T07:52:34.319Z,18.45
2023-05-12T07:55:01.643Z,11.45
2023-05-12T07:57:29.011Z,12.20
2023-05-12T07:59:59.576Z,17.08
2023-05-12T08:02:27.941Z,12.88
2023-05-12T08:04:55.596Z,11.13
2023-05-12T08:07:28.439Z,13.65
2023-05-12T08:10:00.923Z,13.35
2023-05-12T08:12:30.140Z,12.38
2023-05-12T08:14:57.547Z,8.80
2023-05-12T08:17:29.652Z,23.55
2023-05-12T08:20:00.128Z,11.32
2023-05-12T08:22:31.445Z,14.93
2023-05-12T08:25:01.285Z,18.77
2023-05-12T08:27:29.615Z,13.88
2023-05-12T08:29:57.409Z,12.32
2023-05-12T08:32:25.074Z,8.95
2023-05-12T08:34:52.558Z,8.65
2023-05-12T08:37:20.139Z,11.20
2023-05-12T08:39:47.902Z,16.48
2023-05-12T08:42:24.193Z,18.80
2023-05-12T08:44:53.821Z,8.98
2023-05-12T08:47:25.460Z,9.95
2023-05-12T08:50:01.062Z,16.80
2023-05-12T08:52:31.749Z,9.70
2023-05-12T08:55:00.934Z,11.98
2023-05-12T08:57:29.582Z,11.32
2023-05-12T08:59:59.459Z,14.55
2023-05-12T09:02:37.787Z,13.77
2023-05-12T09:05:14.181Z,6.97
2023-05-12T09:07:46.293Z,9.45
2023-05-12T09:10:32.738Z,11.85
2023-05-12T09:13:23.616Z,7.75
2023-05-12T09:15:54.167Z,10.27
2023-05-12T09:18:21.970Z,19.48
2023-05-12T09:20:49.261Z,19.02
2023-05-12T09:23:18.517Z,8.18
2023-05-12T09:25:49.574Z,12.13
2023-05-12T09:28:17.997Z,6.97
2023-05-12T09:30:45.410Z,9.60
2023-05-12T09:33:15.266Z,8.60
2023-05-12T09:35:44.377Z,8.23
2023-05-12T09:38:14.240Z,7.90
2023-05-12T09:40:43.182Z,8.45
2023-05-12T09:43:15.120Z,9.18
2023-05-12T09:45:44.283Z,9.27
2023-05-12T09:48:14.252Z,10.32
2023-05-12T09:50:52.312Z,3.67
2023-05-12T09:53:22.970Z,4.30
2023-05-12T09:55:50.397Z,8.85
2023-05-12T09:58:19.690Z,8.80
2023-05-12T10:03:18.777Z,5.53
2023-05-12T10:05:58.606Z,5.40
2023-05-12T10:08:59.172Z,4.72
2023-05-12T10:11:28.130Z,6.38
2023-05-12T10:13:56.835Z,4.10
2023-05-12T10:16:28.180Z,11.02
2023-05-12T10:18:56.845Z,8.05
2023-05-12T10:21:26.203Z,6.28
2023-05-12T10:23:54.811Z,7.00
2023-05-12T10:26:24.519Z,13.57
2023-05-12T10:28:58.614Z,9.02
2023-05-12T10:31:27.992Z,11.68
2023-05-12T10:33:59.500Z,6.10
2023-05-12T10:36:27.041Z,7.47
2023-05-12T10:38:55.307Z,6.47
2023-05-12T10:41:33.903Z,11.23
2023-05-12T10:44:02.516Z,8.57
2023-05-12T10:46:30.713Z,6.15
2023-05-12T10:49:08.540Z,11.93
2023-05-12T10:51:51.603Z,6.22
2023-05-12T10:54:22.039Z,7.30
2023-05-12T10:56:49.997Z,7.97
2023-05-12T10:59:20.666Z,8.70
2023-05-12T11:02:04.975Z,7.55
2023-05-12T11:04:50.384Z,9.02
2023-05-12T11:07:22.624Z,11.52
2023-05-12T11:09:58.607Z,6.15
2023-05-12T11:12:32.717Z,8.32
2023-05-12T11:15:02.150Z,17.60
2023-05-12T11:17:29.839Z,5.20
2023-05-12T11:19:58.143Z,10.20
2023-05-12T11:22:26.074Z,4.90
2023-05-12T11:24:53.585Z,6.50
2023-05-12T11:27:23.329Z,9.68
2023-05-12T11:30:01.926Z,5.72
2023-05-12T11:32:29.756Z,3.85
2023-05-12T11:35:12.250Z,6.22
2023-05-12T11:37:41.343Z,8.73
2023-05-12T11:40:15.758Z,6.15
2023-05-12T11:42:48.351Z,7.30
2023-05-12T11:45:23.038Z,24.88
2023-05-12T11:47:50.899Z,37.53
2023-05-12T11:50:26.363Z,21.08
2023-05-12T11:52:54.151Z,7.00
2023-05-12T11:55:23.770Z,12.27
2023-05-12T11:58:02.328Z,7.15
2023-05-12T12:00:34.455Z,5.00
2023-05-12T12:03:13.095Z,8.40
2023-05-12T12:05:42.644Z,4.47
2023-05-12T12:08:15.192Z,4.57
2023-05-12T12:10:46.641Z,6.63
2023-05-12T12:13:23.922Z,3.05
2023-05-12T12:15:52.035Z,3.08
2023-05-12T12:18:19.512Z,4.65
2023-05-12T12:20:47.345Z,1.80
2023-05-12T12:23:14.933Z,2.63
2023-05-12T12:25:43.598Z,3.80
2023-05-12T12:28:11.128Z,4.63
2023-05-12T12:30:38.668Z,4.85
2023-05-12T12:33:06.024Z,6.82
2023-05-12T12:35:33.352Z,5.00
2023-05-12T12:38:00.741Z,6.97
2023-05-12T12:40:28.322Z,5.90
2023-05-12T12:42:56.142Z,8.50
2023-05-12T12:45:23.642Z,7.93
2023-05-12T12:47:52.732Z,10.63
2023-05-12T12:50:20.168Z,10.60
2023-05-12T12:52:49.045Z,7.50
2023-05-12T12:55:16.607Z,7.53
2023-05-12T12:57:44.351Z,16.55
2023-05-12T13:00:12.342Z,5.07
2023-05-12T13:02:39.877Z,7.78
2023-05-12T13:05:08.696Z,4.90
2023-05-12T13:07:36.030Z,8.45
2023-05-12T13:10:04.234Z,12.35
2023-05-12T13:12:31.640Z,9.23
2023-05-12T13:15:00.458Z,8.70
2023-05-12T13:17:28.529Z,7.53
2023-05-12T13:19:55.861Z,11.13
2023-05-12T13:22:23.215Z,11.40
2023-05-12T13:24:51.934Z,7.93
2023-05-12T13:27:19.215Z,11.23
2023-05-12T13:29:49.634Z,11.45
2023-05-12T13:32:17.263Z,8.93
2023-05-12T13:34:44.551Z,9.18
2023-05-12T13:37:11.852Z,14.43
2023-05-12T13:39:39.112Z,14.25
2023-05-12T13:42:06.736Z,12.73
2023-05-12T13:44:34.032Z,16.85
2023-05-12T13:47:01.391Z,10.77
2023-05-12T13:49:28.950Z,13.45
2023-05-12T13:51:56.332Z,11.77
2023-05-12T13:54:24.981Z,17.70
2023-05-12T13:56:52.333Z,17.27
2023-05-12T13:59:22.140Z,15.65
2023-05-12T14:01:49.600Z,13.95
2023-05-12T14:04:17.244Z,13.25
2023-05-12T14:06:44.597Z,16.27
2023-05-12T14:09:11.982Z,17.70
2023-05-12T14:11:39.336Z,20.25
2023-05-12T14:14:07.028Z,17.48
2023-05-12T14:16:34.853Z,21.30
2023-05-12T14:19:02.431Z,18.00
2023-05-12T14:21:29.797Z,22.60
2023-05-12T14:23:57.335Z,25.20
2023-05-12T14:26:26.513Z,22.52
2023-05-12T14:28:53.938Z,23.52
2023-05-12T14:31:22.587Z,18.67
2023-05-12T14:33:50.040Z,31.77
2023-05-12T14:36:17.358Z,28.33
2023-05-12T14:38:44.867Z,22.20
2023-05-12T14:41:12.174Z,22.70
2023-05-12T14:43:39.501Z,24.60
2023-05-12T14:46:08.974Z,20.40
2023-05-12T14:48:36.346Z,23.58
2023-05-12T14:51:03.926Z,23.10
2023-05-12T14:53:31.488Z,23.05
2023-05-12T14:55:59.090Z,22.23
2023-05-12T14:58:29.880Z,26.35
2023-05-12T15:01:09.471Z,27.65
2023-05-12T15:03:37.388Z,23.52
2023-05-12T15:06:07.929Z,28.75
2023-05-12T15:08:36.241Z,33.72
2023-05-12T15:11:04.561Z,28.80
2023-05-12T15:13:32.941Z,25.15
2023-05-12T15:16:00.494Z,24.98
2023-05-12T15:18:27.936Z,23.60
2023-05-12T15:20:55.484Z,25.90
2023-05-12T15:23:22.817Z,32.45
2023-05-12T15:25:50.344Z,27.25
2023-05-12T15:28:17.722Z,30.15
2023-05-12T15:30:45.626Z,32.25
2023-05-12T15:33:13.267Z,24.33
2023-05-12T15:35:41.604Z,29.60
2023-05-12T15:38:08.909Z,31.75
2023-05-12T15:40:37.842Z,31.58
2023-05-12T15:43:05.471Z,33.38
2023-05-12T15:45:32.781Z,29.23
2023-05-12T15:48:00.322Z,28.48
2023-05-12T15:50:27.793Z,34.05
2023-05-12T15:52:55.066Z,43.28
2023-05-12T15:55:23.034Z,28.02
2023-05-12T15:57:51.021Z,40.40
2023-05-12T16:00:19.630Z,29.00
2023-05-12T16:02:47.101Z,26.20
2023-05-12T16:05:14.822Z,26.60
2023-05-12T16:07:42.571Z,33.20
2023-05-12T16:10:10.309Z,36.10
2023-05-12T16:12:37.769Z,33.95
2023-05-12T16:15:05.607Z,26.60
2023-05-12T16:17:33.601Z,27.33
2023-05-12T16:20:02.059Z,23.45
2023-05-12T16:22:29.476Z,27.75
2023-05-12T16:25:00.757Z,32.55
2023-05-12T16:27:33.647Z,26.10
2023-05-12T16:30:06.000Z,28.85
2023-05-12T16:32:33.591Z,31.08
2023-05-12T16:35:01.414Z,29.65
2023-05-12T16:37:31.704Z,26.67
2023-05-12T16:40:00.668Z,25.00
2023-05-12T16:42:27.968Z,25.95
2023-05-12T16:44:56.448Z,29.30
2023-05-12T16:47:23.845Z,28.33
2023-05-12T16:49:56.437Z,28.63
2023-05-12T16:52:23.966Z,25.27
2023-05-12T16:54:57.075Z,28.30
2023-05-12T16:57:24.818Z,26.05
2023-05-12T16:59:52.259Z,30.85
2023-05-12T17:02:19.700Z,36.58
2023-05-12T17:04:47.185Z,34.95
2023-05-12T17:07:14.609Z,30.98
2023-05-12T17:09:41.959Z,26.10
2023-05-12T17:12:09.675Z,28.90
2023-05-12T17:14:37.656Z,32.95
2023-05-12T17:17:05.189Z,31.65
2023-05-12T17:19:33.700Z,34.30
2023-05-12T17:22:01.375Z,36.17
2023-05-12T17:24:28.798Z,37.05
2023-05-12T17:26:56.082Z,27.83
2023-05-12T17:29:23.402Z,31.75
2023-05-12T17:31:50.858Z,47.75
2023-05-12T17:34:18.505Z,37.75
2023-05-12T17:36:45.934Z,31.10
2023-05-12T17:39:15.893Z,37.58
2023-05-12T17:41:46.413Z,33.70
2023-05-12T17:44:14.432Z,39.05
2023-05-12T17:46:42.498Z,35.58
2023-05-12T17:49:09.879Z,31.45
2023-05-12T17:51:37.311Z,39.10
2023-05-12T17:54:04.689Z,37.22
2023-05-12T17:56:32.066Z,37.88
2023-05-12T17:59:04.353Z,52.80
2023-05-12T18:01:31.774Z,38.83
2023-05-12T18:03:59.225Z,35.35
2023-05-12T18:06:26.917Z,37.47
2023-05-12T18:08:54.263Z,37.20
2023-05-12T18:11:21.659Z,37.58
2023-05-12T18:13:51.173Z,32.42
2023-05-12T18:16:27.908Z,28.33
2023-05-12T18:18:56.278Z,38.30
2023-05-12T18:21:24.115Z,44.25
2023-05-12T18:23:51.658Z,41.92
2023-05-12T18:26:22.858Z,31.80
2023-05-12T18:28:50.276Z,35.85
2023-05-12T18:31:20.019Z,31.55
2023-05-12T18:33:48.988Z,36.10
2023-05-12T18:36:18.374Z,43.88
2023-05-12T18:38:46.346Z,44.63
2023-05-12T18:41:16.990Z,36.75
2023-05-12T18:43:44.853Z,41.22
2023-05-12T18:46:12.602Z,34.65
2023-05-12T18:48:40.001Z,39.30
2023-05-12T18:51:08.056Z,35.72
2023-05-12T18:53:35.517Z,39.47
2023-05-12T18:56:02.868Z,40.22
2023-05-12T18:58:30.302Z,36.17
2023-05-12T19:00:57.780Z,37.97
2023-05-12T19:03:25.174Z,38.15
2023-05-12T19:05:52.543Z,32.30
2023-05-12T19:08:20.137Z,35.20
2023-05-12T19:10:48.485Z,37.60
2023-05-12T19:13:15.924Z,30.33
2023-05-12T19:15:43.265Z,34.40
2023-05-12T19:18:10.802Z,33.97
2023-05-12T19:20:38.328Z,32.47
2023-05-12T19:23:05.789Z,30.23
2023-05-12T19:25:33.124Z,31.00
2023-05-12T19:28:00.940Z,31.88
2023-05-12T19:30:29.345Z,34.10
2023-05-12T19:32:57.060Z,31.30
2023-05-12T19:35:24.990Z,32.70
2023-05-12T19:37:52.633Z,30.33
2023-05-12T19:40:21.170Z,36.63
2023-05-12T19:42:48.463Z,33.00
2023-05-12T19:45:15.915Z,47.72
2023-05-12T19:47:43.842Z,33.03
2023-05-12T19:50:11.718Z,37.97
2023-05-12T19:52:39.751Z,31.23
2023-05-12T19:55:08.991Z,30.98
2023-05-12T19:57:50.251Z,33.92
2023-05-12T20:00:22.382Z,27.48
2023-05-12T20:02:49.857Z,34.03
2023-05-12T20:05:17.815Z,26.23
2023-05-12T20:07:46.210Z,31.35
2023-05-12T20:10:14.525Z,30.98
2023-05-12T20:12:41.933Z,35.30
2023-05-12T20:15:10.208Z,36.33
2023-05-12T20:17:37.613Z,28.73
2023-05-12T20:20:05.713Z,28.00
2023-05-12T20:22:34.306Z,38.40
2023-05-12T20:25:04.854Z,30.42
2023-05-12T20:27:33.358Z,38.38
2023-05-12T20:30:00.797Z,30.40
2023-05-12T20:32:28.316Z,24.40
2023-05-12T20:34:55.908Z,41.60
2023-05-12T20:37:23.263Z,28.50
2023-05-12T20:39:52.781Z,128.35
2023-05-12T20:42:20.833Z,32.83
2023-05-12T20:44:52.594Z,34.70
2023-05-12T20:47:20.405Z,37.92
2023-05-12T20:49:50.955Z,28.60
2023-05-12T20:52:18.493Z,31.20
2023-05-12T20:54:47.440Z,26.80
2023-05-12T20:57:14.722Z,29.00
2023-05-12T20:59:42.204Z,36.58
2023-05-12T21:02:10.834Z,31.92
2023-05-12T21:04:42.959Z,29.08
2023-05-12T21:07:11.350Z,31.33
2023-05-12T21:09:39.100Z,31.38
2023-05-12T21:12:06.834Z,38.05
2023-05-12T21:14:39.823Z,33.95
2023-05-12T21:17:08.343Z,28.58
2023-05-12T21:19:36.618Z,34.65
2023-05-12T21:22:05.301Z,29.27
2023-05-12T21:24:33.199Z,36.28
2023-05-12T21:27:04.110Z,34.05
2023-05-12T21:29:33.415Z,33.22
2023-05-12T21:32:01.460Z,22.08
2023-05-12T21:34:31.318Z,28.67
2023-05-12T21:37:00.547Z,29.55
2023-05-12T21:39:33.685Z,26.88
2023-05-12T21:42:04.034Z,27.50
2023-05-12T21:44:31.889Z,26.17
2023-05-12T21:46:59.426Z,27.02
2023-05-12T21:49:26.918Z,27.55
2023-05-12T21:51:59.865Z,28.48
2023-05-12T21:54:27.342Z,26.80
2023-05-12T21:56:54.629Z,33.83
2023-05-12T21:59:22.338Z,33.15
2023-05-12T22:01:50.083Z,27.52
2023-05-12T22:04:17.643Z,33.33
2023-05-12T22:06:44.999Z,28.73
2023-05-12T22:09:12.409Z,30.65
2023-05-12T22:11:39.893Z,33.95
2023-05-12T22:14:07.334Z,23.58
2023-05-12T22:16:41.968Z,27.30
2023-05-12T22:19:10.324Z,31.52
2023-05-12T22:21:37.959Z,33.33
2023-05-12T22:24:05.723Z,30.88
2023-05-12T22:26:36.127Z,27.63
2023-05-12T22:29:03.506Z,31.80
2023-05-12T22:31:30.848Z,28.13
2023-05-12T22:33:58.204Z,29.33
2023-05-12T22:36:25.763Z,27.15
2023-05-12T22:38:53.072Z,31.30
2023-05-12T22:41:20.513Z,34.08
2023-05-12T22:43:47.907Z,30.50
2023-05-12T22:46:15.179Z,32.17
2023-05-12T22:48:43.568Z,38.53
2023-05-12T22:51:11.101Z,28.80
2023-05-12T22:53:41.952Z,30.77
2023-05-12T22:56:09.340Z,37.15
2023-05-12T22:58:36.666Z,23.13
2023-05-12T23:01:04.226Z,26.13
2023-05-12T23:03:33.037Z,29.75
2023-05-12T23:06:00.399Z,27.70
2023-05-12T23:08:27.773Z,28.90
2023-05-12T23:10:55.111Z,26.10
2023-05-12T23:13:22.540Z,34.67
2023-05-12T23:15:49.979Z,27.38
2023-05-12T23:18:17.416Z,32.08
2023-05-12T23:20:44.887Z,25.63
2023-05-12T23:23:12.351Z,30.83
2023-05-12T23:25:39.803Z,25.10
2023-05-12T23:28:07.275Z,26.80
2023-05-12T23:30:34.639Z,25.55
2023-05-12T23:33:01.987Z,23.00
2023-05-12T23:35:29.425Z,37.92
2023-05-12T23:37:56.786Z,36.05
2023-05-12T23:40:24.274Z,22.92
2023-05-12T23:42:51.768Z,27.05
2023-05-12T23:45:19.103Z,24.85
2023-05-12T23:47:46.560Z,30.05
2023-05-12T23:50:13.943Z,31.80
2023-05-12T23:52:41.325Z,32.15
2023-05-12T23:55:08.927Z,24.33
2023-05-12T23:57:36.309Z,29.60
